createdAt,value
2019-03-24T00:00:12.782Z,100282.13
2019-03-24T00:01:23.804Z,100283.98
2019-03-24T00:02:25.575Z,100280.97
2019-03-24T00:03:26.968Z,100290.52
2019-03-24T00:04:28.348Z,100277.45
2019-03-24T00:05:29.857Z,100264.22
2019-03-24T00:06:31.243Z,100283.64
2019-03-24T00:07:32.661Z,100284.63
2019-03-24T00:08:34.080Z,100277.91
2019-03-24T00:09:35.494Z,100281.27
2019-03-24T00:10:36.909Z,100291.67
2019-03-24T00:11:38.314Z,100287.84
2019-03-24T00:12:39.766Z,100261.69
2019-03-24T00:13:41.153Z,100263.70
2019-03-24T00:14:42.661Z,100269.22
2019-03-24T00:15:44.044Z,100280.48
2019-03-24T00:16:45.569Z,100277.13
2019-03-24T00:17:46.940Z,100284.66
2019-03-24T00:18:48.346Z,100307.31
2019-03-24T00:19:49.722Z,100279.63
2019-03-24T00:20:51.532Z,100292.72
2019-03-24T00:21:53.030Z,100282.84
2019-03-24T00:22:54.511Z,100311.50
2019-03-24T00:23:56.440Z,100303.11
2019-03-24T00:24:57.831Z,100305.47
2019-03-24T00:25:59.217Z,100294.73
2019-03-24T00:27:00.782Z,100309.67
2019-03-24T00:28:02.167Z,100300.62
2019-03-24T00:29:04.771Z,100312.52
2019-03-24T00:30:07.246Z,100320.56
2019-03-24T00:31:08.635Z,100308.64
2019-03-24T00:32:10.036Z,100309.31
2019-03-24T00:33:11.427Z,100293.89
2019-03-24T00:34:12.952Z,100311.84
2019-03-24T00:35:14.313Z,100312.85
2019-03-24T00:36:15.699Z,100306.63
2019-03-24T00:37:17.100Z,100304.29
2019-03-24T00:38:18.475Z,100294.23
2019-03-24T00:39:19.876Z,100302.80
2019-03-24T00:40:21.384Z,100319.22
2019-03-24T00:41:22.798Z,100310.51
2019-03-24T00:42:24.326Z,100309.17
2019-03-24T00:43:25.784Z,100303.47
2019-03-24T00:44:27.272Z,100303.80
2019-03-24T00:45:36.481Z,100298.44
2019-03-24T00:46:31.960Z,100322.58
2019-03-24T00:47:33.360Z,100315.02
2019-03-24T00:48:34.727Z,100314.69
2019-03-24T00:49:36.129Z,100321.91
2019-03-24T00:50:37.510Z,100303.13
2019-03-24T00:51:38.906Z,100303.47
2019-03-24T00:52:40.320Z,100291.55
2019-03-24T00:53:41.711Z,100299.11
2019-03-24T00:54:43.096Z,100304.48
2019-03-24T00:55:44.485Z,100305.81
2019-03-24T00:56:45.882Z,100307.64
2019-03-24T00:57:47.290Z,100296.58
2019-03-24T00:58:48.669Z,100302.63
2019-03-24T00:59:50.077Z,100286.73
2019-03-24T01:00:51.967Z,100279.00
2019-03-24T01:01:53.367Z,100299.94
2019-03-24T01:02:54.786Z,100288.05
2019-03-24T01:03:56.177Z,100294.24
2019-03-24T01:04:57.666Z,100287.20
2019-03-24T01:05:59.057Z,100293.09
2019-03-24T01:07:00.444Z,100273.98
2019-03-24T01:08:01.951Z,100296.26
2019-03-24T01:09:05.827Z,100308.52
2019-03-24T01:10:07.524Z,100310.34
2019-03-24T01:11:08.901Z,100292.42
2019-03-24T01:12:10.297Z,100310.86
2019-03-24T01:13:12.180Z,100297.79
2019-03-24T01:14:13.634Z,100304.49
2019-03-24T01:15:15.031Z,100319.88
2019-03-24T01:16:16.407Z,100301.11
2019-03-24T01:17:17.785Z,100315.52
2019-03-24T01:18:19.223Z,100320.55
2019-03-24T01:19:20.695Z,100321.56
2019-03-24T01:20:22.092Z,100332.28
2019-03-24T01:21:23.471Z,100333.62
2019-03-24T01:22:24.869Z,100329.61
2019-03-24T01:23:26.256Z,100325.44
2019-03-24T01:24:27.751Z,100332.47
2019-03-24T01:25:29.141Z,100334.63
2019-03-24T01:26:33.764Z,100338.66
2019-03-24T01:27:35.157Z,100324.09
2019-03-24T01:28:36.564Z,100335.64
2019-03-24T01:29:37.942Z,100330.46
2019-03-24T01:30:39.340Z,100334.97
2019-03-24T01:31:40.716Z,100334.30
2019-03-24T01:32:42.220Z,100341.00
2019-03-24T01:33:43.641Z,100347.38
2019-03-24T01:34:45.035Z,100334.30
2019-03-24T01:35:46.441Z,100330.28
2019-03-24T01:36:47.835Z,100352.73
2019-03-24T01:37:49.231Z,100357.09
2019-03-24T01:38:50.641Z,100366.48
2019-03-24T01:39:52.146Z,100363.45
2019-03-24T01:40:53.569Z,100366.14
2019-03-24T01:41:54.974Z,100367.14
2019-03-24T01:42:56.387Z,100330.46
2019-03-24T01:43:57.796Z,100350.57
2019-03-24T01:44:59.316Z,100338.98
2019-03-24T01:46:00.810Z,100345.20
2019-03-24T01:47:02.301Z,100353.73
2019-03-24T01:48:03.678Z,100352.06
2019-03-24T01:49:05.271Z,100333.62
2019-03-24T01:50:07.247Z,100325.25
2019-03-24T01:51:08.757Z,100335.97
2019-03-24T01:52:10.237Z,100339.17
2019-03-24T01:53:11.740Z,100333.81
2019-03-24T01:54:13.132Z,100345.87
2019-03-24T01:55:14.523Z,100346.36
2019-03-24T01:56:15.920Z,100326.25
2019-03-24T01:57:17.763Z,100349.90
2019-03-24T01:58:19.255Z,100349.90
2019-03-24T01:59:20.656Z,100356.08
2019-03-24T02:00:22.066Z,100350.23
2019-03-24T02:01:23.472Z,100353.92
2019-03-24T02:02:24.848Z,100340.52
2019-03-24T02:03:26.353Z,100361.63
2019-03-24T02:04:27.750Z,100344.69
2019-03-24T02:05:29.239Z,100345.20
2019-03-24T02:06:30.731Z,100355.08
2019-03-24T02:07:32.223Z,100352.58
2019-03-24T02:08:33.614Z,100359.77
2019-03-24T02:09:35.018Z,100360.62
2019-03-24T02:10:37.595Z,100366.98
2019-03-24T02:11:38.997Z,100374.84
2019-03-24T02:12:40.378Z,100365.98
2019-03-24T02:13:41.768Z,100372.35
2019-03-24T02:14:43.158Z,100367.48
2019-03-24T02:15:44.617Z,100363.79
2019-03-24T02:16:46.013Z,100384.56
2019-03-24T02:17:47.398Z,100390.45
2019-03-24T02:18:48.782Z,100394.13
2019-03-24T02:19:50.220Z,100380.73
2019-03-24T02:20:51.600Z,100387.42
2019-03-24T02:21:52.992Z,100368.66
2019-03-24T02:22:55.367Z,100385.23
2019-03-24T02:23:56.766Z,100390.59
2019-03-24T02:24:58.179Z,100365.13
2019-03-24T02:25:59.572Z,100381.36
2019-03-24T02:27:00.956Z,100381.21
2019-03-24T02:28:02.842Z,100367.47
2019-03-24T02:29:04.223Z,100375.52
2019-03-24T02:30:07.533Z,100378.20
2019-03-24T02:31:08.907Z,100373.66
2019-03-24T02:32:10.311Z,100375.52
2019-03-24T02:33:11.784Z,100369.63
2019-03-24T02:34:13.180Z,100378.20
2019-03-24T02:35:14.892Z,100389.74
2019-03-24T02:36:16.284Z,100373.31
2019-03-24T02:37:17.666Z,100379.69
2019-03-24T02:38:19.155Z,100388.92
2019-03-24T02:39:21.538Z,100385.38
2019-03-24T02:40:22.944Z,100384.56
2019-03-24T02:41:24.353Z,100396.63
2019-03-24T02:42:25.762Z,100387.24
2019-03-24T02:43:27.166Z,100397.63
2019-03-24T02:44:28.612Z,100386.05
2019-03-24T02:45:30.003Z,100396.77
2019-03-24T02:46:31.461Z,100380.35
2019-03-24T02:47:32.850Z,100376.67
2019-03-24T02:48:34.236Z,100375.84
2019-03-24T02:49:35.616Z,100380.88
2019-03-24T02:50:37.120Z,100372.31
2019-03-24T02:51:38.499Z,100371.48
2019-03-24T02:52:40.016Z,100379.87
2019-03-24T02:53:41.382Z,100363.94
2019-03-24T02:54:42.786Z,100378.53
2019-03-24T02:55:44.181Z,100382.03
2019-03-24T02:56:45.562Z,100373.98
2019-03-24T02:57:47.247Z,100382.55
2019-03-24T02:58:48.730Z,100381.20
2019-03-24T02:59:50.230Z,100372.16
2019-03-24T03:00:51.632Z,100385.56
2019-03-24T03:01:53.151Z,100380.20
2019-03-24T03:02:54.554Z,100388.25
2019-03-24T03:03:56.076Z,100378.53
2019-03-24T03:04:57.481Z,100391.93
2019-03-24T03:05:59.176Z,100394.61
2019-03-24T03:07:00.559Z,100396.77
2019-03-24T03:08:01.952Z,100400.80
2019-03-24T03:09:04.430Z,100406.34
2019-03-24T03:10:07.724Z,100401.80
2019-03-24T03:11:09.299Z,100405.00
2019-03-24T03:12:10.702Z,100404.14
2019-03-24T03:13:12.208Z,100404.66
2019-03-24T03:14:13.724Z,100402.47
2019-03-24T03:15:15.233Z,100406.00
2019-03-24T03:16:20.293Z,100405.33
2019-03-24T03:17:21.858Z,100397.63
2019-03-24T03:18:23.342Z,100411.84
2019-03-24T03:19:24.820Z,100419.41
2019-03-24T03:20:26.215Z,100414.70
2019-03-24T03:21:27.617Z,100419.55
2019-03-24T03:22:29.006Z,100418.39
2019-03-24T03:23:30.403Z,100420.40
2019-03-24T03:24:31.787Z,100411.84
2019-03-24T03:25:33.194Z,100422.89
2019-03-24T03:26:34.583Z,100422.06
2019-03-24T03:27:36.069Z,100422.41
2019-03-24T03:28:37.453Z,100419.05
2019-03-24T03:29:38.946Z,100419.05
2019-03-24T03:30:44.696Z,100419.72
2019-03-24T03:31:46.125Z,100414.84
2019-03-24T03:32:47.502Z,100423.22
2019-03-24T03:33:48.993Z,100421.05
2019-03-24T03:34:50.367Z,100424.73
2019-03-24T03:35:51.851Z,100416.18
2019-03-24T03:36:53.234Z,100419.04
2019-03-24T03:37:54.615Z,100413.02
2019-03-24T03:39:02.150Z,100423.55
2019-03-24T03:40:07.278Z,100424.73
2019-03-24T03:41:08.890Z,100426.23
2019-03-24T03:42:10.273Z,100436.14
2019-03-24T03:43:11.640Z,100437.14
2019-03-24T03:44:14.139Z,100416.70
2019-03-24T03:45:19.119Z,100438.14
2019-03-24T03:46:20.518Z,100440.82
2019-03-24T03:47:21.920Z,100448.19
2019-03-24T03:48:23.489Z,100446.17
2019-03-24T03:49:24.901Z,100451.88
2019-03-24T03:50:26.486Z,100452.70
2019-03-24T03:51:27.899Z,100453.70
2019-03-24T03:52:29.301Z,100452.36
2019-03-24T03:53:30.694Z,100447.86
2019-03-24T03:54:32.088Z,100446.00
2019-03-24T03:55:33.468Z,100447.34
2019-03-24T03:56:34.868Z,100453.04
2019-03-24T03:57:36.314Z,100446.86
2019-03-24T03:58:37.727Z,100444.17
2019-03-24T03:59:39.143Z,100454.89
2019-03-24T04:00:46.748Z,100467.30
2019-03-24T04:01:48.410Z,100458.73
2019-03-24T04:02:49.830Z,100449.88
2019-03-24T04:03:51.208Z,100453.89
2019-03-24T04:04:52.708Z,100451.36
2019-03-24T04:05:54.081Z,100464.27
2019-03-24T04:06:55.479Z,100461.26
2019-03-24T04:07:57.578Z,100455.90
2019-03-24T04:08:59.011Z,100458.58
2019-03-24T04:10:00.628Z,100463.94
2019-03-24T04:11:02.026Z,100470.30
2019-03-24T04:12:03.444Z,100465.28
2019-03-24T04:13:04.987Z,100472.80
2019-03-24T04:14:06.437Z,100466.10
2019-03-24T04:15:07.836Z,100467.44
2019-03-24T04:16:09.312Z,100473.31
2019-03-24T04:17:10.710Z,100461.59
2019-03-24T04:18:12.089Z,100468.30
2019-03-24T04:19:13.577Z,100466.95
2019-03-24T04:20:14.989Z,100464.61
2019-03-24T04:21:16.434Z,100467.63
2019-03-24T04:22:17.823Z,100460.41
2019-03-24T04:23:19.230Z,100456.73
2019-03-24T04:24:20.713Z,100471.66
2019-03-24T04:25:22.114Z,100470.66
2019-03-24T04:26:23.495Z,100466.30
2019-03-24T04:27:24.996Z,100468.97
2019-03-24T04:28:26.483Z,100459.25
2019-03-24T04:29:27.890Z,100470.45
2019-03-24T04:30:29.289Z,100473.66
2019-03-24T04:31:30.807Z,100464.77
2019-03-24T04:32:32.528Z,100464.94
2019-03-24T04:33:33.946Z,100464.94
2019-03-24T04:34:35.327Z,100458.72
2019-03-24T04:35:36.730Z,100463.75
2019-03-24T04:36:38.212Z,100469.59
2019-03-24T04:37:39.709Z,100468.25
2019-03-24T04:38:41.122Z,100468.88
2019-03-24T04:39:43.613Z,100463.19
2019-03-24T04:40:45.020Z,100459.16
2019-03-24T04:41:47.430Z,100449.96
2019-03-24T04:42:48.836Z,100460.50
2019-03-24T04:43:50.245Z,100461.50
2019-03-24T04:44:51.622Z,100467.20
2019-03-24T04:45:53.229Z,100458.34
2019-03-24T04:46:54.599Z,100452.64
2019-03-24T04:47:56.006Z,100452.12
2019-03-24T04:48:57.409Z,100452.64
2019-03-24T04:49:58.978Z,100450.78
2019-03-24T04:51:00.403Z,100454.47
2019-03-24T04:52:01.814Z,100461.17
2019-03-24T04:53:03.332Z,100464.36
2019-03-24T04:54:04.728Z,100466.19
2019-03-24T04:55:06.705Z,100460.48
2019-03-24T04:56:08.112Z,100465.36
2019-03-24T04:57:09.488Z,100457.15
2019-03-24T04:58:10.896Z,100456.47
2019-03-24T04:59:12.311Z,100461.69
2019-03-24T05:00:14.229Z,100467.19
2019-03-24T05:01:15.639Z,100464.51
2019-03-24T05:02:17.158Z,100459.48
2019-03-24T05:03:18.575Z,100458.15
2019-03-24T05:04:19.977Z,100459.48
2019-03-24T05:05:21.354Z,100453.13
2019-03-24T05:06:22.849Z,100449.96
2019-03-24T05:07:24.831Z,100469.20
2019-03-24T05:08:26.335Z,100469.88
2019-03-24T05:09:27.716Z,100472.22
2019-03-24T05:10:29.227Z,100481.12
2019-03-24T05:11:30.639Z,100478.92
2019-03-24T05:12:32.057Z,100480.27
2019-03-24T05:13:33.475Z,100484.28
2019-03-24T05:14:34.872Z,100479.44
2019-03-24T05:15:36.253Z,100492.33
2019-03-24T05:16:37.660Z,100482.95
2019-03-24T05:17:39.048Z,100487.81
2019-03-24T05:18:41.552Z,100494.00
2019-03-24T05:19:42.991Z,100483.63
2019-03-24T05:20:44.482Z,100484.96
2019-03-24T05:21:45.887Z,100485.97
2019-03-24T05:22:47.292Z,100490.32
2019-03-24T05:23:48.708Z,100486.30
2019-03-24T05:24:50.107Z,100493.00
2019-03-24T05:25:51.486Z,100495.20
2019-03-24T05:26:52.989Z,100493.86
2019-03-24T05:27:54.364Z,100495.53
2019-03-24T05:28:55.872Z,100488.50
2019-03-24T05:29:57.889Z,100499.56
2019-03-24T05:30:59.309Z,100496.05
2019-03-24T05:32:00.720Z,100497.39
2019-03-24T05:33:02.172Z,100506.26
2019-03-24T05:34:03.856Z,100487.02
2019-03-24T05:35:06.282Z,100490.55
2019-03-24T05:36:07.650Z,100494.56
2019-03-24T05:37:09.042Z,100493.23
2019-03-24T05:38:10.418Z,100497.73
2019-03-24T05:39:11.817Z,100502.61
2019-03-24T05:40:13.201Z,100493.71
2019-03-24T05:41:14.603Z,100494.71
2019-03-24T05:42:16.908Z,100495.20
2019-03-24T05:43:18.329Z,100491.17
2019-03-24T05:44:19.724Z,100497.39
2019-03-24T05:45:21.124Z,100495.68
2019-03-24T05:46:22.504Z,100495.34
2019-03-24T05:47:23.903Z,100502.90
2019-03-24T05:48:25.272Z,100500.08
2019-03-24T05:49:26.667Z,100499.45
2019-03-24T05:50:28.052Z,100491.56
2019-03-24T05:51:29.524Z,100497.78
2019-03-24T05:52:30.941Z,100496.44
2019-03-24T05:53:32.345Z,100496.10
2019-03-24T05:54:33.752Z,100501.46
2019-03-24T05:55:35.152Z,100496.77
2019-03-24T05:56:36.522Z,100503.95
2019-03-24T05:57:37.921Z,100503.23
2019-03-24T05:58:39.294Z,100499.70
2019-03-24T05:59:40.691Z,100503.72
2019-03-24T06:00:42.216Z,100505.23
2019-03-24T06:01:43.623Z,100508.74
2019-03-24T06:02:45.031Z,100502.56
2019-03-24T06:03:46.438Z,100505.91
2019-03-24T06:04:47.856Z,100502.70
2019-03-24T06:05:51.409Z,100502.02
2019-03-24T06:06:52.884Z,100514.60
2019-03-24T06:07:54.276Z,100508.73
2019-03-24T06:08:55.648Z,100511.25
2019-03-24T06:09:57.047Z,100514.75
2019-03-24T06:10:58.441Z,100518.77
2019-03-24T06:11:59.848Z,100521.63
2019-03-24T06:13:01.352Z,100520.96
2019-03-24T06:14:02.760Z,100522.78
2019-03-24T06:15:08.540Z,100517.42
2019-03-24T06:16:09.932Z,100518.77
2019-03-24T06:17:11.321Z,100524.13
2019-03-24T06:18:12.719Z,100522.30
2019-03-24T06:19:14.089Z,100526.80
2019-03-24T06:20:15.484Z,100523.78
2019-03-24T06:21:16.863Z,100523.78
2019-03-24T06:22:18.340Z,100527.32
2019-03-24T06:23:19.841Z,100520.28
2019-03-24T06:24:21.253Z,100528.32
2019-03-24T06:25:22.665Z,100533.83
2019-03-24T06:26:24.076Z,100525.13
2019-03-24T06:27:25.453Z,100534.84
2019-03-24T06:28:26.970Z,100520.45
2019-03-24T06:29:28.343Z,100541.06
2019-03-24T06:30:29.852Z,100540.55
2019-03-24T06:31:31.240Z,100538.37
2019-03-24T06:32:32.647Z,100536.05
2019-03-24T06:33:34.061Z,100535.52
2019-03-24T06:34:35.473Z,100539.55
2019-03-24T06:35:36.888Z,100535.52
2019-03-24T06:36:38.563Z,100538.20
2019-03-24T06:37:39.939Z,100537.86
2019-03-24T06:38:41.447Z,100540.06
2019-03-24T06:39:42.825Z,100532.02
2019-03-24T06:40:44.233Z,100533.84
2019-03-24T06:41:45.663Z,100543.56
2019-03-24T06:42:47.042Z,100540.88
2019-03-24T06:43:48.460Z,100536.86
2019-03-24T06:44:49.870Z,100544.08
2019-03-24T06:45:51.275Z,100552.28
2019-03-24T06:46:52.673Z,100550.94
2019-03-24T06:47:58.255Z,100547.78
2019-03-24T06:48:57.581Z,100552.14
2019-03-24T06:49:58.964Z,100551.28
2019-03-24T06:51:00.368Z,100541.42
2019-03-24T06:52:01.868Z,100548.61
2019-03-24T06:53:03.331Z,100547.78
2019-03-24T06:54:04.720Z,100553.82
2019-03-24T06:55:06.611Z,100552.63
2019-03-24T06:56:08.106Z,100540.56
2019-03-24T06:57:09.625Z,100541.76
2019-03-24T06:58:11.008Z,100538.22
2019-03-24T06:59:12.403Z,100529.84
2019-03-24T07:00:14.680Z,100540.42
2019-03-24T07:01:16.093Z,100541.24
2019-03-24T07:02:17.499Z,100536.88
2019-03-24T07:03:18.882Z,100531.86
2019-03-24T07:04:20.284Z,100531.52
2019-03-24T07:05:21.665Z,100541.76
2019-03-24T07:06:23.060Z,100522.48
2019-03-24T07:07:24.893Z,100527.50
2019-03-24T07:08:26.302Z,100533.20
2019-03-24T07:09:27.812Z,100521.66
2019-03-24T07:10:29.230Z,100525.67
2019-03-24T07:11:30.620Z,100515.44
2019-03-24T07:12:32.017Z,100526.50
2019-03-24T07:13:33.498Z,100531.38
2019-03-24T07:14:34.895Z,100522.86
2019-03-24T07:15:36.289Z,100517.83
2019-03-24T07:16:37.791Z,100523.56
2019-03-24T07:17:39.276Z,100528.75
2019-03-24T07:18:40.707Z,100520.90
2019-03-24T07:19:42.214Z,100522.06
2019-03-24T07:20:43.620Z,100515.89
2019-03-24T07:21:45.027Z,100509.36
2019-03-24T07:22:46.424Z,100505.86
2019-03-24T07:23:47.992Z,100517.27
2019-03-24T07:24:49.385Z,100521.30
2019-03-24T07:25:50.766Z,100508.42
2019-03-24T07:26:52.156Z,100515.47
2019-03-24T07:27:53.552Z,100509.61
2019-03-24T07:28:55.025Z,100507.79
2019-03-24T07:29:56.519Z,100510.00
2019-03-24T07:30:58.028Z,100499.95
2019-03-24T07:31:59.432Z,100507.00
2019-03-24T07:33:00.919Z,100509.69
2019-03-24T07:34:02.313Z,100504.17
2019-03-24T07:35:05.508Z,100503.33
2019-03-24T07:36:07.000Z,100500.65
2019-03-24T07:37:08.395Z,100499.64
2019-03-24T07:38:09.801Z,100508.37
2019-03-24T07:39:13.108Z,100481.88
2019-03-24T07:40:14.600Z,100487.45
2019-03-24T07:41:15.976Z,100489.66
2019-03-24T07:42:17.377Z,100489.31
2019-03-24T07:43:18.806Z,100490.81
2019-03-24T07:44:20.194Z,100494.02
2019-03-24T07:45:21.548Z,100489.98
2019-03-24T07:46:22.924Z,100495.20
2019-03-24T07:47:24.323Z,100489.83
2019-03-24T07:48:25.712Z,100488.63
2019-03-24T07:49:28.226Z,100489.64
2019-03-24T07:50:29.636Z,100487.62
2019-03-24T07:51:31.043Z,100494.84
2019-03-24T07:52:32.456Z,100490.63
2019-03-24T07:53:33.898Z,100499.20
2019-03-24T07:54:36.378Z,100481.93
2019-03-24T07:55:37.860Z,100489.64
2019-03-24T07:56:39.245Z,100498.19
2019-03-24T07:57:40.625Z,100488.95
2019-03-24T07:58:42.146Z,100498.02
2019-03-24T07:59:43.531Z,100498.35
2019-03-24T08:00:44.931Z,100510.77
2019-03-24T08:01:46.308Z,100506.07
2019-03-24T08:02:51.363Z,100492.64
2019-03-24T08:03:53.034Z,100490.62
2019-03-24T08:04:54.492Z,100502.03
2019-03-24T08:05:55.880Z,100509.75
2019-03-24T08:06:57.269Z,100505.23
2019-03-24T08:07:58.761Z,100512.28
2019-03-24T08:09:00.175Z,100504.36
2019-03-24T08:10:05.624Z,100512.76
2019-03-24T08:11:08.027Z,100510.41
2019-03-24T08:12:09.399Z,100506.38
2019-03-24T08:13:10.793Z,100517.12
2019-03-24T08:14:12.171Z,100511.75
2019-03-24T08:15:13.560Z,100510.41
2019-03-24T08:16:14.949Z,100518.80
2019-03-24T08:17:16.342Z,100523.50
2019-03-24T08:18:17.731Z,100512.94
2019-03-24T08:19:19.132Z,100517.11
2019-03-24T08:20:20.611Z,100529.75
2019-03-24T08:21:22.009Z,100521.53
2019-03-24T08:22:23.383Z,100525.22
2019-03-24T08:23:24.781Z,100529.91
2019-03-24T08:24:26.169Z,100534.09
2019-03-24T08:25:27.624Z,100546.86
2019-03-24T08:26:29.008Z,100546.70
2019-03-24T08:27:30.393Z,100538.63
2019-03-24T08:28:31.779Z,100539.63
2019-03-24T08:29:33.181Z,100549.37
2019-03-24T08:30:34.954Z,100557.25
2019-03-24T08:31:36.355Z,100550.86
2019-03-24T08:32:37.734Z,100552.54
2019-03-24T08:33:39.142Z,100551.86
2019-03-24T08:34:41.631Z,100549.35
2019-03-24T08:35:43.028Z,100548.34
2019-03-24T08:36:44.405Z,100543.97
2019-03-24T08:37:45.893Z,100539.78
2019-03-24T08:38:47.490Z,100554.05
2019-03-24T08:39:48.923Z,100547.66
2019-03-24T08:40:50.408Z,100549.00
2019-03-24T08:41:51.789Z,100542.61
2019-03-24T08:42:53.195Z,100546.98
2019-03-24T08:43:54.610Z,100536.41
2019-03-24T08:44:56.012Z,100547.31
2019-03-24T08:45:57.389Z,100541.45
2019-03-24T08:46:58.792Z,100548.66
2019-03-24T08:48:00.165Z,100537.22
2019-03-24T08:49:01.568Z,100537.22
2019-03-24T08:50:05.155Z,100543.45
2019-03-24T08:51:06.569Z,100532.70
2019-03-24T08:52:07.981Z,100531.69
2019-03-24T08:53:09.396Z,100543.78
2019-03-24T08:54:10.812Z,100538.73
2019-03-24T08:55:12.278Z,100532.69
2019-03-24T08:56:13.737Z,100524.28
2019-03-24T08:57:15.229Z,100536.53
2019-03-24T08:58:16.626Z,100539.73
2019-03-24T08:59:18.011Z,100526.10
2019-03-24T09:00:30.133Z,100538.20
2019-03-24T09:01:23.711Z,100542.23
2019-03-24T09:02:25.112Z,100529.13
2019-03-24T09:03:26.504Z,100530.47
2019-03-24T09:04:27.909Z,100526.77
2019-03-24T09:05:29.296Z,100512.30
2019-03-24T09:06:30.693Z,100518.54
2019-03-24T09:07:32.077Z,100520.56
2019-03-24T09:08:33.468Z,100518.70
2019-03-24T09:09:34.867Z,100521.39
2019-03-24T09:10:36.269Z,100518.20
2019-03-24T09:11:37.640Z,100529.45
2019-03-24T09:12:39.036Z,100520.38
2019-03-24T09:13:40.418Z,100531.98
2019-03-24T09:14:41.813Z,100525.75
2019-03-24T09:15:43.373Z,100519.03
2019-03-24T09:16:44.998Z,100515.33
2019-03-24T09:17:46.484Z,100510.31
2019-03-24T09:18:52.853Z,100504.57
2019-03-24T09:19:51.353Z,100505.75
2019-03-24T09:20:52.752Z,100502.05
2019-03-24T09:21:54.129Z,100499.20
2019-03-24T09:22:55.527Z,100499.89
2019-03-24T09:23:56.906Z,100500.22
2019-03-24T09:24:58.312Z,100490.80
2019-03-24T09:25:59.707Z,100489.80
2019-03-24T09:27:01.249Z,100489.45
2019-03-24T09:28:02.727Z,100494.51
2019-03-24T09:29:04.117Z,100489.45
2019-03-24T09:30:26.736Z,100485.09
2019-03-24T09:31:28.160Z,100482.89
2019-03-24T09:32:29.539Z,100486.77
2019-03-24T09:33:30.945Z,100481.71
2019-03-24T09:34:32.327Z,100479.38
2019-03-24T09:35:33.730Z,100477.70
2019-03-24T09:36:35.110Z,100474.02
2019-03-24T09:37:36.601Z,100477.03
2019-03-24T09:38:37.988Z,100461.42
2019-03-24T09:39:39.491Z,100460.92
2019-03-24T09:40:40.970Z,100474.03
2019-03-24T09:41:43.377Z,100461.61
2019-03-24T09:42:44.779Z,100459.93
2019-03-24T09:43:46.320Z,100455.23
2019-03-24T09:44:48.705Z,100448.02
2019-03-24T09:45:50.222Z,100470.02
2019-03-24T09:46:51.734Z,100453.56
2019-03-24T09:47:53.102Z,100446.51
2019-03-24T09:49:02.725Z,100452.73
2019-03-24T09:49:57.884Z,100461.30
2019-03-24T09:50:59.393Z,100440.31
2019-03-24T09:52:00.883Z,100452.90
2019-03-24T09:53:02.294Z,100448.53
2019-03-24T09:54:03.697Z,100442.66
2019-03-24T09:55:05.606Z,100455.09
2019-03-24T09:56:07.985Z,100456.93
2019-03-24T09:57:09.453Z,100452.56
2019-03-24T09:58:10.826Z,100439.98
2019-03-24T09:59:12.214Z,100445.84
2019-03-24T10:00:13.595Z,100442.14
2019-03-24T10:01:14.998Z,100444.83
2019-03-24T10:02:16.394Z,100442.47
2019-03-24T10:03:17.782Z,100446.51
2019-03-24T10:04:19.179Z,100448.52
2019-03-24T10:05:20.563Z,100445.66
2019-03-24T10:06:22.013Z,100450.85
2019-03-24T10:07:23.433Z,100451.70
2019-03-24T10:08:25.808Z,100436.72
2019-03-24T10:09:27.225Z,100440.59
2019-03-24T10:10:28.600Z,100439.58
2019-03-24T10:11:30.011Z,100436.89
2019-03-24T10:12:32.395Z,100434.70
2019-03-24T10:13:33.893Z,100434.53
2019-03-24T10:14:35.306Z,100438.57
2019-03-24T10:15:36.683Z,100432.67
2019-03-24T10:16:38.074Z,100430.17
2019-03-24T10:17:39.484Z,100428.98
2019-03-24T10:18:40.856Z,100437.58
2019-03-24T10:19:42.260Z,100440.27
2019-03-24T10:20:43.633Z,100417.24
2019-03-24T10:21:45.037Z,100417.57
2019-03-24T10:22:46.523Z,100418.25
2019-03-24T10:23:47.911Z,100421.47
2019-03-24T10:24:49.407Z,100428.02
2019-03-24T10:25:50.793Z,100431.91
2019-03-24T10:26:52.172Z,100427.71
2019-03-24T10:27:53.634Z,100420.66
2019-03-24T10:28:55.008Z,100434.78
2019-03-24T10:29:56.388Z,100415.63
2019-03-24T10:30:57.768Z,100408.25
2019-03-24T10:31:59.146Z,100426.08
2019-03-24T10:33:00.639Z,100421.71
2019-03-24T10:34:02.025Z,100425.08
2019-03-24T10:35:05.307Z,100422.39
2019-03-24T10:36:06.702Z,100422.88
2019-03-24T10:37:08.084Z,100414.81
2019-03-24T10:38:09.486Z,100424.75
2019-03-24T10:39:10.965Z,100422.88
2019-03-24T10:40:13.264Z,100424.75
2019-03-24T10:41:14.642Z,100423.89
2019-03-24T10:42:16.050Z,100420.72
2019-03-24T10:43:17.439Z,100417.50
2019-03-24T10:44:18.828Z,100417.70
2019-03-24T10:45:20.212Z,100428.78
2019-03-24T10:46:21.606Z,100427.44
2019-03-24T10:47:23.087Z,100420.20
2019-03-24T10:48:33.340Z,100412.32
2019-03-24T10:49:28.377Z,100416.35
2019-03-24T10:50:29.777Z,100412.98
2019-03-24T10:51:31.253Z,100416.49
2019-03-24T10:52:32.768Z,100411.97
2019-03-24T10:53:34.250Z,100425.08
2019-03-24T10:54:36.740Z,100423.73
2019-03-24T10:55:38.231Z,100420.72
2019-03-24T10:56:39.616Z,100415.50
2019-03-24T10:57:41.091Z,100416.02
2019-03-24T10:58:42.667Z,100416.02
2019-03-24T10:59:44.039Z,100419.53
2019-03-24T11:00:45.518Z,100409.11
2019-03-24T11:01:47.017Z,100418.85
2019-03-24T11:02:48.384Z,100414.48
2019-03-24T11:03:49.768Z,100420.38
2019-03-24T11:04:51.256Z,100416.35
2019-03-24T11:05:53.730Z,100411.66
2019-03-24T11:06:56.136Z,100414.34
2019-03-24T11:07:57.551Z,100403.59
2019-03-24T11:08:58.952Z,100400.91
2019-03-24T11:10:00.355Z,100404.42
2019-03-24T11:11:01.720Z,100403.59
2019-03-24T11:12:03.301Z,100402.41
2019-03-24T11:13:04.792Z,100398.05
2019-03-24T11:14:06.285Z,100401.26
2019-03-24T11:15:08.792Z,100405.97
2019-03-24T11:16:10.351Z,100405.97
2019-03-24T11:17:11.767Z,100396.20
2019-03-24T11:18:13.180Z,100398.89
2019-03-24T11:19:14.577Z,100393.52
2019-03-24T11:20:15.944Z,100397.55
2019-03-24T11:21:17.699Z,100399.05
2019-03-24T11:22:19.176Z,100396.52
2019-03-24T11:23:20.684Z,100394.52
2019-03-24T11:24:22.072Z,100398.05
2019-03-24T11:25:23.489Z,100398.05
2019-03-24T11:26:24.893Z,100397.53
2019-03-24T11:27:26.410Z,100395.86
2019-03-24T11:28:27.809Z,100394.84
2019-03-24T11:29:29.387Z,100392.16
2019-03-24T11:30:30.861Z,100392.00
2019-03-24T11:31:33.264Z,100388.79
2019-03-24T11:32:34.644Z,100393.52
2019-03-24T11:33:36.145Z,100390.01
2019-03-24T11:34:37.532Z,100389.48
2019-03-24T11:35:38.924Z,100382.77
2019-03-24T11:36:40.313Z,100384.11
2019-03-24T11:37:41.697Z,100382.77
2019-03-24T11:38:43.092Z,100383.13
2019-03-24T11:39:44.617Z,100380.08
2019-03-24T11:40:45.988Z,100380.08
2019-03-24T11:41:47.430Z,100381.27
2019-03-24T11:42:48.793Z,100375.56